Time;durP1;ratioP1;P1;durP2;ratioP2;P2;SDS_P1;SDS_P2;PMS_P1;PMS_P2;Temp;Humidity;BMP_temperature;BMP_pressure;BME280_temperature;BME280_humidity;BME280_pressure;Samples;Min_cycle;Max_cycle;Signal;HPM_P1;HPM_P2
2022/10/20 00:01:55;;;;;;;2.10;0.60;;;6.90;99.90;;;;;;5034884;28;20172;-83
2022/10/20 00:04:21;;;;;;;0.93;0.50;;;6.90;99.90;;;;;;5034888;28;20183;-84
2022/10/20 00:06:46;;;;;;;1.07;0.30;;;7.00;99.90;;;;;;5034870;28;20168;-82
2022/10/20 00:09:12;;;;;;;1.33;0.30;;;6.90;99.90;;;;;;5034752;28;20695;-84
2022/10/20 00:11:37;;;;;;;4.50;1.40;;;6.90;99.90;;;;;;5034346;28;20164;-83
2022/10/20 00:14:03;;;;;;;0.90;0.50;;;6.90;99.90;;;;;;5034363;28;20216;-82
2022/10/20 00:16:33;;;;;;;0.83;0.40;;;6.90;99.90;;;;;;5034690;28;20180;-84
2022/10/20 00:18:58;;;;;;;1.93;0.50;;;6.80;99.90;;;;;;5034601;28;20550;-84
2022/10/20 00:21:26;;;;;;;2.80;0.40;;;6.80;99.90;;;;;;5034557;28;20455;-83
2022/10/20 00:23:51;;;;;;;1.20;0.40;;;6.70;99.90;;;;;;5033827;28;20712;-84
2022/10/20 00:26:23;;;;;;;2.80;1.03;;;6.70;99.90;;;;;;5034034;28;20543;-84
2022/10/20 00:28:49;;;;;;;2.43;0.70;;;6.60;99.90;;;;;;5033958;28;20213;-82
2022/10/20 00:31:16;;;;;;;1.27;0.63;;;6.60;99.90;;;;;;5034274;28;20833;-84
2022/10/20 00:33:41;;;;;;;2.17;0.50;;;6.60;99.90;;;;;;5034348;28;20451;-84
2022/10/20 00:36:09;;;;;;;0.60;0.37;;;6.60;99.90;;;;;;5034258;28;20849;-84
2022/10/20 00:38:35;;;;;;;1.33;0.37;;;6.50;99.90;;;;;;5034160;28;20170;-84
2022/10/20 00:41:06;;;;;;;1.60;0.50;;;6.60;99.90;;;;;;5033761;28;20421;-84
2022/10/20 00:43:41;;;;;;;1.73;0.40;;;6.50;99.90;;;;;;5034219;28;20192;-83
2022/10/20 00:46:07;;;;;;;1.10;0.43;;;6.60;99.90;;;;;;5044622;28;20399;-83
2022/10/20 00:48:33;;;;;;;1.63;0.43;;;6.50;99.90;;;;;;5051184;28;20484;-83
2022/10/20 00:50:59;;;;;;;2.00;0.60;;;6.50;99.90;;;;;;5052848;28;20216;-83
2022/10/20 00:53:28;;;;;;;0.80;0.57;;;6.40;99.90;;;;;;5050410;28;20500;-83
2022/10/20 00:55:58;;;;;;;1.40;0.30;;;6.40;99.90;;;;;;5041214;28;20168;-84
2022/10/20 00:58:25;;;;;;;1.47;0.40;;;6.30;99.90;;;;;;5034153;28;20453;-84
2022/10/20 01:01:15;;;;;;;3.40;0.40;;;6.40;99.90;;;;;;5033739;28;20415;-83
2022/10/20 01:03:47;;;;;;;1.47;0.40;;;6.50;99.90;;;;;;5011559;28;20417;-82
2022/10/20 01:06:15;;;;;;;2.50;0.40;;;6.40;99.90;;;;;;5011959;28;20430;-83
2022/10/20 01:08:40;;;;;;;0.83;0.33;;;6.30;99.90;;;;;;5011763;28;20501;-82
2022/10/20 01:11:24;;;;;;;1.50;0.63;;;6.30;99.90;;;;;;5011452;28;20463;-82
2022/10/20 01:14:02;;;;;;;1.67;0.80;;;6.30;99.90;;;;;;5011582;28;20208;-82
2022/10/20 01:16:53;;;;;;;1.77;0.30;;;6.40;99.90;;;;;;5011687;28;20465;-82
2022/10/20 01:19:46;;;;;;;0.80;0.40;;;6.30;99.90;;;;;;5011604;28;20954;-83
2022/10/20 01:22:21;;;;;;;1.73;0.50;;;6.30;99.90;;;;;;5011585;28;20916;-83
2022/10/20 01:24:59;;;;;;;0.93;0.40;;;6.30;99.90;;;;;;5011505;28;20456;-82
2022/10/20 01:27:34;;;;;;;1.50;0.70;;;6.30;99.90;;;;;;5011510;28;20412;-82
2022/10/20 01:30:10;;;;;;;1.67;0.53;;;6.30;99.90;;;;;;5011396;28;20907;-83
2022/10/20 01:32:48;;;;;;;0.80;0.40;;;6.30;99.90;;;;;;5011450;28;20765;-82
2022/10/20 01:35:46;;;;;;;0.90;0.43;;;6.20;99.90;;;;;;5027704;28;20420;-83
2022/10/20 01:38:21;;;;;;;1.63;0.50;;;6.20;99.90;;;;;;4962526;28;20471;-83
2022/10/20 01:40:53;;;;;;;2.00;0.20;;;6.10;99.90;;;;;;5032874;28;20434;-83
2022/10/20 01:43:22;;;;;;;2.07;1.20;;;6.00;99.90;;;;;;5033033;28;20428;-83
2022/10/20 01:45:50;;;;;;;1.90;0.70;;;6.00;99.90;;;;;;5032876;28;20430;-83
2022/10/20 01:48:20;;;;;;;1.80;0.63;;;6.00;99.90;;;;;;5033041;28;20499;-83
2022/10/20 01:50:47;;;;;;;0.90;0.53;;;6.00;99.90;;;;;;5033135;28;20417;-83
2022/10/20 01:53:12;;;;;;;1.70;0.50;;;6.00;99.90;;;;;;5033029;28;20411;-83
2022/10/20 01:55:39;;;;;;;1.03;0.37;;;6.10;99.90;;;;;;5032705;28;20441;-83
2022/10/20 01:58:35;;;;;;;0.50;0.30;;;6.00;99.90;;;;;;5032980;28;20201;-83
2022/10/20 02:01:12;;;;;;;2.03;0.83;;;5.90;99.90;;;;;;5032873;28;21008;-83
2022/10/20 02:03:56;;;;;;;1.10;0.47;;;5.90;99.90;;;;;;5032985;28;20419;-83
2022/10/20 02:06:40;;;;;;;2.20;0.43;;;5.90;99.90;;;;;;5032981;28;20415;-82
2022/10/20 02:09:10;;;;;;;2.30;0.60;;;5.80;99.90;;;;;;5032749;28;20793;-82
2022/10/20 02:11:59;;;;;;;1.50;0.40;;;5.70;99.90;;;;;;5032559;28;20816;-83
2022/10/20 02:14:25;;;;;;;0.87;0.30;;;5.70;99.90;;;;;;5032654;28;20616;-83
2022/10/20 02:17:00;;;;;;;0.50;0.30;;;5.70;99.90;;;;;;5032847;28;20810;-82
2022/10/20 02:19:32;;;;;;;1.53;0.60;;;5.70;99.90;;;;;;5032799;28;20416;-82
2022/10/20 02:21:58;;;;;;;2.47;0.43;;;5.60;99.90;;;;;;5032681;28;20417;-82
2022/10/20 02:24:27;;;;;;;2.20;0.43;;;5.50;99.90;;;;;;5032743;28;20403;-82
2022/10/20 02:26:56;;;;;;;1.03;0.37;;;5.50;99.90;;;;;;5032374;28;20171;-82
2022/10/20 02:29:28;;;;;;;2.30;0.40;;;5.60;99.90;;;;;;5032589;28;20535;-82
2022/10/20 02:31:54;;;;;;;1.30;0.60;;;5.60;99.90;;;;;;5032599;28;20418;-82
2022/10/20 02:34:20;;;;;;;0.87;0.50;;;5.60;99.90;;;;;;5031420;28;20764;-82
2022/10/20 02:36:46;;;;;;;1.40;0.77;;;5.50;99.90;;;;;;5032643;28;20415;-83
2022/10/20 02:39:11;;;;;;;0.80;0.80;;;5.60;99.90;;;;;;5032699;28;20697;-82
2022/10/20 02:41:37;;;;;;;2.23;0.73;;;5.50;99.90;;;;;;5032246;28;20645;-83
2022/10/20 02:44:03;;;;;;;2.30;0.97;;;5.50;99.90;;;;;;5032503;28;20247;-83
2022/10/20 02:46:28;;;;;;;1.03;0.57;;;5.50;99.90;;;;;;5033243;28;20531;-83
2022/10/20 02:48:54;;;;;;;1.10;0.83;;;5.50;99.90;;;;;;5036136;28;20540;-84
2022/10/20 02:51:19;;;;;;;2.20;0.53;;;5.50;99.90;;;;;;5036225;28;20176;-83
2022/10/20 02:53:45;;;;;;;1.17;0.50;;;5.50;99.90;;;;;;5036207;28;20176;-83
2022/10/20 02:56:11;;;;;;;1.43;0.50;;;5.50;99.90;;;;;;5035901;28;20640;-84
2022/10/20 02:58:36;;;;;;;1.83;0.53;;;5.50;99.90;;;;;;5036072;28;20175;-83
2022/10/20 03:01:02;;;;;;;2.53;0.40;;;5.50;99.90;;;;;;5035970;28;20905;-84
2022/10/20 03:03:28;;;;;;;1.37;0.40;;;5.50;99.90;;;;;;5036014;28;20195;-84
2022/10/20 03:05:54;;;;;;;1.50;0.90;;;5.50;99.90;;;;;;5034463;28;20814;-84
2022/10/20 03:08:20;;;;;;;2.10;0.77;;;5.40;99.90;;;;;;5035342;28;20258;-83
2022/10/20 03:10:45;;;;;;;2.50;1.13;;;5.40;99.90;;;;;;5035507;28;20179;-83
2022/10/20 03:13:13;;;;;;;1.60;1.07;;;5.30;99.90;;;;;;5035068;28;20411;-83
2022/10/20 03:15:38;;;;;;;1.13;0.37;;;5.30;99.90;;;;;;5035184;28;20220;-83
2022/10/20 03:18:04;;;;;;;1.07;0.70;;;5.30;99.90;;;;;;5035761;28;20487;-83
2022/10/20 03:20:29;;;;;;;1.23;0.50;;;5.20;99.90;;;;;;5035673;28;20245;-82
2022/10/20 03:22:55;;;;;;;1.60;0.90;;;5.30;99.90;;;;;;5035692;28;20176;-83
2022/10/20 03:25:20;;;;;;;2.03;1.20;;;5.30;99.90;;;;;;5035262;28;20176;-83
2022/10/20 03:27:46;;;;;;;1.27;0.60;;;5.30;99.90;;;;;;5035613;28;20628;-83
2022/10/20 03:30:11;;;;;;;2.63;0.57;;;5.20;99.90;;;;;;5035432;28;20215;-82
2022/10/20 03:32:37;;;;;;;1.80;1.13;;;5.20;99.90;;;;;;5035463;28;20183;-83
2022/10/20 03:35:03;;;;;;;1.60;0.80;;;5.10;99.90;;;;;;5035505;28;20171;-82
2022/10/20 03:37:28;;;;;;;4.27;0.93;;;5.10;99.90;;;;;;5035407;28;20184;-83
2022/10/20 03:39:54;;;;;;;1.40;1.03;;;5.10;99.90;;;;;;5035043;28;20186;-83
2022/10/20 03:42:19;;;;;;;1.67;0.70;;;5.10;99.90;;;;;;5035416;28;20257;-83
2022/10/20 03:44:44;;;;;;;4.13;0.97;;;5.10;99.90;;;;;;5035301;28;20231;-83
2022/10/20 03:47:11;;;;;;;1.17;0.60;;;5.10;99.90;;;;;;5035182;28;20174;-83
2022/10/20 03:49:37;;;;;;;1.70;0.50;;;5.10;99.90;;;;;;5035053;28;20217;-83
2022/10/20 03:52:03;;;;;;;2.97;1.17;;;5.10;99.90;;;;;;5035112;28;20418;-83
2022/10/20 03:54:29;;;;;;;1.13;0.80;;;5.10;99.90;;;;;;5035158;28;20185;-83
2022/10/20 03:56:54;;;;;;;1.70;0.80;;;5.10;99.90;;;;;;5034661;28;20409;-83
2022/10/20 03:59:20;;;;;;;3.67;1.03;;;5.10;99.90;;;;;;5033918;28;20633;-83
2022/10/20 04:01:46;;;;;;;1.40;1.30;;;5.10;99.90;;;;;;5034903;28;20544;-82
2022/10/20 04:04:12;;;;;;;2.40;1.03;;;5.10;99.90;;;;;;5034930;28;20174;-83
2022/10/20 04:06:37;;;;;;;3.40;0.87;;;5.10;99.90;;;;;;5034878;28;20413;-83
2022/10/20 04:09:03;;;;;;;2.30;1.07;;;5.10;99.90;;;;;;5034668;28;20663;-83
2022/10/20 04:11:29;;;;;;;3.33;1.43;;;5.10;99.90;;;;;;5034502;28;20222;-83
2022/10/20 04:13:55;;;;;;;3.83;1.00;;;5.20;99.90;;;;;;5034559;28;20989;-83
2022/10/20 04:16:21;;;;;;;2.00;0.83;;;5.10;99.90;;;;;;5034551;28;20463;-84
2022/10/20 04:18:47;;;;;;;1.77;1.37;;;5.00;99.90;;;;;;5034602;28;20704;-83
2022/10/20 04:21:12;;;;;;;2.27;1.43;;;5.10;99.90;;;;;;5034546;28;20426;-83
2022/10/20 04:23:38;;;;;;;2.17;0.87;;;5.10;99.90;;;;;;5033550;28;20202;-83
2022/10/20 04:26:11;;;;;;;1.47;1.17;;;5.10;99.90;;;;;;5034254;28;20182;-83
2022/10/20 04:28:36;;;;;;;2.10;1.00;;;5.20;99.90;;;;;;5034391;28;20517;-83
2022/10/20 04:31:02;;;;;;;2.33;1.20;;;5.10;99.90;;;;;;5034349;28;20421;-83
2022/10/20 04:33:27;;;;;;;1.80;0.90;;;5.10;99.90;;;;;;5034353;28;20178;-84
2022/10/20 04:36:02;;;;;;;4.67;1.00;;;5.10;99.90;;;;;;5034368;28;20178;-83
2022/10/20 04:38:29;;;;;;;5.80;0.80;;;5.10;99.90;;;;;;5034280;28;20170;-84
2022/10/20 04:41:00;;;;;;;2.80;0.70;;;5.10;99.90;;;;;;5033843;28;20424;-83
2022/10/20 04:43:26;;;;;;;1.33;0.87;;;5.10;99.90;;;;;;5034164;28;20942;-82
2022/10/20 04:45:57;;;;;;;2.13;0.80;;;5.10;99.90;;;;;;5034080;28;20410;-83
2022/10/20 04:48:23;;;;;;;2.13;1.67;;;5.00;99.90;;;;;;5034376;28;20175;-84
2022/10/20 04:51:06;;;;;;;3.50;0.80;;;4.90;99.90;;;;;;5033897;28;20777;-83
2022/10/20 04:53:32;;;;;;;3.50;1.67;;;4.90;99.90;;;;;;5033989;28;20425;-83
2022/10/20 04:55:58;;;;;;;3.07;0.83;;;4.90;99.90;;;;;;5033556;28;20421;-83
2022/10/20 04:58:25;;;;;;;1.77;1.07;;;4.90;99.90;;;;;;5034269;28;20211;-83
2022/10/20 05:00:50;;;;;;;1.80;1.37;;;4.90;99.90;;;;;;5032636;28;20698;-83
2022/10/20 05:03:17;;;;;;;3.43;1.50;;;4.90;99.90;;;;;;5033737;28;20450;-83
2022/10/20 05:05:46;;;;;;;2.00;1.13;;;5.00;99.90;;;;;;5033776;28;20205;-82
2022/10/20 05:08:12;;;;;;;2.47;1.13;;;5.00;99.90;;;;;;5033737;28;20471;-83
2022/10/20 05:10:37;;;;;;;2.43;1.10;;;5.00;99.90;;;;;;5032969;28;20473;-84
2022/10/20 05:13:03;;;;;;;3.03;1.20;;;5.00;99.90;;;;;;5033563;28;20588;-83
2022/10/20 05:15:28;;;;;;;4.20;1.47;;;4.90;99.90;;;;;;5033370;28;20218;-82
2022/10/20 05:17:54;;;;;;;5.00;1.60;;;5.00;99.90;;;;;;5033571;28;20679;-83
2022/10/20 05:20:19;;;;;;;3.47;1.80;;;5.00;99.90;;;;;;5034570;28;20247;-82
2022/10/20 05:22:45;;;;;;;1.50;0.90;;;5.00;99.90;;;;;;5033968;28;20225;-83
2022/10/20 05:25:10;;;;;;;1.80;1.07;;;5.00;99.90;;;;;;5033159;28;20303;-83
2022/10/20 05:27:36;;;;;;;3.23;1.10;;;5.00;99.90;;;;;;5033511;28;20248;-83
2022/10/20 05:30:01;;;;;;;4.60;2.50;;;4.90;99.90;;;;;;5033207;28;20219;-84
2022/10/20 05:32:27;;;;;;;2.20;0.93;;;5.00;99.90;;;;;;5033271;28;20531;-83
2022/10/20 05:34:53;;;;;;;1.73;0.87;;;4.90;99.90;;;;;;5033285;28;20173;-84
2022/10/20 05:37:19;;;;;;;1.53;0.73;;;5.00;99.90;;;;;;5033284;28;20414;-84
2022/10/20 05:39:45;;;;;;;2.27;1.33;;;5.10;99.90;;;;;;5033268;28;20707;-86
2022/10/20 05:42:10;;;;;;;2.50;1.67;;;5.20;99.90;;;;;;5033768;28;20173;-83
2022/10/20 05:44:36;;;;;;;1.50;1.17;;;5.30;99.90;;;;;;5033514;28;20992;-84
2022/10/20 05:47:02;;;;;;;2.47;1.30;;;5.30;99.90;;;;;;5033369;28;20236;-84
2022/10/20 05:49:27;;;;;;;3.40;1.93;;;5.30;99.90;;;;;;5033537;28;20238;-85
2022/10/20 05:51:53;;;;;;;4.60;1.40;;;5.30;99.90;;;;;;5033973;28;20196;-83
2022/10/20 05:54:18;;;;;;;2.80;1.33;;;5.40;99.90;;;;;;5033553;28;20210;-85
2022/10/20 05:56:44;;;;;;;4.27;2.30;;;5.40;99.90;;;;;;5033544;28;20174;-83
2022/10/20 05:59:10;;;;;;;2.50;1.73;;;5.50;99.90;;;;;;5033748;28;20171;-83
2022/10/20 06:01:48;;;;;;;4.00;1.27;;;5.50;99.90;;;;;;5032365;28;20659;-84
2022/10/20 06:06:44;;;;;;;3.43;1.47;;;5.50;99.90;;;;;;5070891;28;20483;-84
2022/10/20 06:09:10;;;;;;;2.67;1.70;;;5.50;99.90;;;;;;5073231;28;20529;-83
2022/10/20 06:11:37;;;;;;;2.37;1.23;;;5.60;99.90;;;;;;5073532;28;20265;-84
2022/10/20 06:14:02;;;;;;;3.90;2.33;;;5.60;99.90;;;;;;5073211;28;20451;-83
2022/10/20 06:16:28;;;;;;;2.37;1.80;;;5.60;99.90;;;;;;5073563;28;20408;-83
2022/10/20 06:18:56;;;;;;;2.47;1.97;;;5.70;99.90;;;;;;5073487;28;20957;-84
2022/10/20 06:21:30;;;;;;;5.80;2.60;;;5.70;99.90;;;;;;5073724;28;20777;-85
2022/10/20 06:24:02;;;;;;;3.67;1.47;;;5.80;99.90;;;;;;5077550;28;20490;-85
2022/10/20 06:26:28;;;;;;;2.90;1.47;;;5.90;99.90;;;;;;5076606;28;20415;-83
2022/10/20 06:28:56;;;;;;;3.33;1.07;;;5.90;99.90;;;;;;5077004;28;20455;-85
2022/10/20 06:31:42;;;;;;;3.60;2.30;;;5.90;99.90;;;;;;5077692;28;20504;-85
2022/10/20 06:34:12;;;;;;;6.13;2.20;;;6.00;99.90;;;;;;5077060;28;20464;-86
2022/10/20 06:36:39;;;;;;;3.40;1.97;;;6.10;99.90;;;;;;5058902;28;20517;-85
2022/10/20 06:39:06;;;;;;;4.10;2.53;;;6.20;99.90;;;;;;5076835;28;20405;-83
2022/10/20 06:41:32;;;;;;;4.27;2.37;;;6.30;99.90;;;;;;5076809;28;20465;-84
2022/10/20 06:43:59;;;;;;;7.40;2.53;;;6.40;99.90;;;;;;5076875;28;20410;-83
2022/10/20 06:46:29;;;;;;;7.57;3.27;;;6.60;99.90;;;;;;5058697;28;20438;-84
2022/10/20 06:48:58;;;;;;;12.60;4.37;;;6.70;99.90;;;;;;5076156;28;20453;-81
2022/10/20 06:51:23;;;;;;;5.20;2.60;;;6.60;99.90;;;;;;5076202;28;20477;-81
2022/10/20 06:53:50;;;;;;;3.03;2.20;;;6.60;99.90;;;;;;5076119;28;20416;-81
2022/10/20 06:56:21;;;;;;;2.90;1.90;;;6.70;99.90;;;;;;5075649;28;20706;-84
2022/10/20 06:58:49;;;;;;;2.50;1.47;;;6.70;99.90;;;;;;5076048;28;20904;-83
2022/10/20 07:01:17;;;;;;;7.00;1.60;;;6.70;99.90;;;;;;5076044;28;20545;-85
2022/10/20 07:03:45;;;;;;;2.53;1.30;;;6.90;99.90;;;;;;5075942;28;20434;-85
2022/10/20 07:06:19;;;;;;;3.43;1.40;;;7.00;99.90;;;;;;5075799;28;20548;-84
2022/10/20 07:08:45;;;;;;;2.53;1.13;;;7.20;99.90;;;;;;5075805;28;20419;-86
2022/10/20 07:11:16;;;;;;;2.00;1.20;;;7.40;99.90;;;;;;5075511;28;20938;-83
2022/10/20 07:13:42;;;;;;;2.77;1.50;;;7.50;99.90;;;;;;5076035;28;20410;-83
2022/10/20 07:16:13;;;;;;;3.13;1.07;;;7.70;99.90;;;;;;5075821;28;20934;-85
2022/10/20 07:18:39;;;;;;;3.20;0.80;;;8.00;99.90;;;;;;5075868;28;20577;-83
2022/10/20 07:21:11;;;;;;;2.33;1.53;;;8.10;99.90;;;;;;5075668;28;20416;-83
2022/10/20 07:23:37;;;;;;;3.10;1.40;;;8.30;99.90;;;;;;5057710;28;20785;-84
2022/10/20 07:26:05;;;;;;;1.67;0.83;;;8.60;99.90;;;;;;5075221;28;20506;-84
2022/10/20 07:28:32;;;;;;;2.10;0.93;;;8.80;99.90;;;;;;5075406;28;20194;-84
2022/10/20 07:31:07;;;;;;;2.10;1.10;;;9.10;99.90;;;;;;5075449;28;20415;-84
2022/10/20 07:33:38;;;;;;;1.37;0.90;;;9.60;99.90;;;;;;5075361;28;20414;-84
2022/10/20 07:36:12;;;;;;;1.50;0.77;;;9.80;62.90;;;;;;5075301;28;20505;-86
2022/10/20 07:38:38;;;;;;;2.20;1.27;;;9.70;76.90;;;;;;5075399;28;20424;-86
2022/10/20 07:41:03;;;;;;;1.50;1.03;;;9.70;51.70;;;;;;5074969;28;20757;-85
2022/10/20 07:43:29;;;;;;;2.30;0.90;;;9.50;99.90;;;;;;5075216;28;20182;-84
2022/10/20 07:45:54;;;;;;;2.10;0.80;;;9.90;44.60;;;;;;5075218;28;20218;-82
2022/10/20 07:48:23;;;;;;;3.83;1.37;;;10.30;1.00;;;;;;5075065;28;20178;-82
2022/10/20 07:50:48;;;;;;;4.47;1.70;;;10.20;1.00;;;;;;5075122;28;20272;-82
2022/10/20 07:53:14;;;;;;;4.50;2.47;;;10.50;1.00;;;;;;5075083;28;20816;-82
2022/10/20 07:55:39;;;;;;;1.80;0.83;;;10.80;1.00;;;;;;5074688;28;20866;-82
2022/10/20 07:58:05;;;;;;;1.37;0.70;;;10.40;1.00;;;;;;5075085;28;20179;-82
2022/10/20 08:00:30;;;;;;;3.63;0.33;;;10.60;1.00;;;;;;5074976;28;20214;-83
2022/10/20 08:02:59;;;;;;;2.50;0.70;;;11.30;99.90;;;;;;5074830;28;20165;-82
2022/10/20 08:05:25;;;;;;;1.87;0.67;;;11.30;99.90;;;;;;5074517;28;20226;-83
2022/10/20 08:07:51;;;;;;;1.70;0.50;;;11.30;99.90;;;;;;5074747;28;20403;-83
2022/10/20 08:10:16;;;;;;;1.97;0.60;;;11.20;99.90;;;;;;5074293;28;20475;-82
2022/10/20 08:12:42;;;;;;;1.70;0.70;;;11.60;99.90;;;;;;5074629;28;20171;-83
2022/10/20 08:15:08;;;;;;;3.30;1.13;;;10.80;1.00;;;;;;5074693;28;20841;-82
2022/10/20 08:17:33;;;;;;;2.87;0.67;;;10.90;1.00;;;;;;5074629;28;20173;-83
2022/10/20 08:19:59;;;;;;;2.57;0.67;;;11.20;99.90;;;;;;5074515;28;20209;-82
2022/10/20 08:22:24;;;;;;;4.50;0.80;;;12.20;99.90;;;;;;5074418;28;20587;-83
2022/10/20 08:24:50;;;;;;;2.10;0.67;;;12.40;99.90;;;;;;5074102;28;20178;-82
2022/10/20 08:27:15;;;;;;;1.57;0.93;;;12.50;99.90;;;;;;5074410;28;20165;-83
2022/10/20 08:29:41;;;;;;;1.57;0.67;;;12.40;1.00;;;;;;5074323;28;20205;-84
2022/10/20 08:32:07;;;;;;;2.97;0.43;;;12.20;1.00;;;;;;5074330;28;20168;-84
2022/10/20 08:34:32;;;;;;;1.57;0.77;;;12.20;99.90;;;;;;5074252;28;20418;-84
2022/10/20 08:36:59;;;;;;;5.10;1.27;;;12.20;1.00;;;;;;5074229;28;20619;-84
2022/10/20 08:39:24;;;;;;;2.20;0.73;;;12.60;1.00;;;;;;5073929;28;20252;-83
2022/10/20 08:41:52;;;;;;;2.20;0.73;;;12.50;57.20;;;;;;5074157;28;20613;-84
2022/10/20 08:44:24;;;;;;;1.53;1.10;;;12.00;99.90;;;;;;5073505;28;20184;-83
2022/10/20 08:46:50;;;;;;;1.90;0.93;;;11.80;99.90;;;;;;5074035;28;20408;-85
2022/10/20 08:49:26;;;;;;;1.67;0.50;;;11.90;3.90;;;;;;5073862;28;20461;-83
2022/10/20 08:51:51;;;;;;;1.80;1.17;;;11.60;1.00;;;;;;5074013;28;20214;-84
2022/10/20 08:54:17;;;;;;;1.97;0.50;;;11.60;1.00;;;;;;5055597;28;20823;-84
2022/10/20 08:56:44;;;;;;;1.80;0.77;;;12.00;99.90;;;;;;5073748;28;20268;-84
2022/10/20 08:59:33;;;;;;;3.43;0.53;;;12.80;48.00;;;;;;5073740;28;20494;-83
2022/10/20 09:01:59;;;;;;;1.33;0.40;;;13.30;1.00;;;;;;5073731;28;20418;-85
2022/10/20 09:04:32;;;;;;;1.97;0.60;;;12.80;1.00;;;;;;5073522;28;20857;-84
2022/10/20 09:07:07;;;;;;;1.67;0.57;;;12.30;1.00;;;;;;5073648;28;20430;-83
2022/10/20 09:09:34;;;;;;;3.10;0.50;;;12.80;1.00;;;;;;5073227;28;20462;-85
2022/10/20 09:12:05;;;;;;;1.60;0.97;;;13.20;1.00;;;;;;5073484;28;20912;-85
2022/10/20 09:14:34;;;;;;;2.40;0.73;;;13.80;99.90;;;;;;5073583;28;20445;-84
2022/10/20 09:17:00;;;;;;;4.50;0.70;;;14.90;1.00;;;;;;5055404;28;20921;-84
2022/10/20 09:19:26;;;;;;;1.70;0.50;;;15.10;99.90;;;;;;5073461;28;20480;-86
2022/10/20 09:21:56;;;;;;;1.90;0.30;;;14.80;99.90;;;;;;5073399;28;20221;-85
2022/10/20 09:24:24;;;;;;;2.30;0.30;;;15.30;99.90;;;;;;5073177;28;20780;-86
2022/10/20 09:26:50;;;;;;;2.00;0.50;;;14.50;99.90;;;;;;5073355;28;20409;-85
2022/10/20 09:29:21;;;;;;;1.03;0.53;;;14.30;1.00;;;;;;5073294;28;20470;-85
2022/10/20 09:31:53;;;;;;;2.80;0.50;;;14.90;1.00;;;;;;5073247;28;20420;-85
2022/10/20 09:34:23;;;;;;;2.63;0.93;;;15.10;99.90;;;;;;5073335;28;20413;-85
2022/10/20 09:36:51;;;;;;;1.63;0.50;;;14.40;1.00;;;;;;5073135;28;20425;-84
2022/10/20 09:39:23;;;;;;;1.47;0.50;;;14.00;1.00;;;;;;5072887;28;20763;-86
2022/10/20 09:41:57;;;;;;;3.20;0.73;;;14.70;1.00;;;;;;5055191;28;20451;-85
2022/10/20 09:44:24;;;;;;;2.63;0.60;;;15.20;99.90;;;;;;5073198;28;20473;-85
2022/10/20 09:46:52;;;;;;;3.27;0.90;;;15.80;99.90;;;;;;5073022;28;20765;-85
2022/10/20 09:49:28;;;;;;;2.87;0.60;;;15.60;99.90;;;;;;5073094;28;20508;-85
2022/10/20 09:51:53;;;;;;;1.40;0.33;;;15.50;99.90;;;;;;5055084;28;20478;-86
2022/10/20 09:54:22;;;;;;;1.87;0.60;;;16.80;99.90;;;;;;5054714;28;20439;-84
2022/10/20 09:56:48;;;;;;;1.00;0.40;;;16.20;99.90;;;;;;5072086;28;20172;-85
2022/10/20 09:59:30;;;;;;;2.00;0.80;;;16.70;99.90;;;;;;5072937;28;20496;-85
2022/10/20 10:02:01;;;;;;;2.10;0.50;;;17.30;99.90;;;;;;5072952;28;20416;-85
2022/10/20 10:04:31;;;;;;;1.10;0.70;;;18.00;99.90;;;;;;5072651;28;20484;-85
2022/10/20 10:06:57;;;;;;;1.43;0.53;;;17.80;99.90;;;;;;5072875;28;21003;-86
2022/10/20 10:09:31;;;;;;;1.10;0.50;;;17.20;99.90;;;;;;5072316;28;20557;-85
2022/10/20 10:12:10;;;;;;;3.83;0.90;;;18.40;99.90;;;;;;5072994;28;20165;-86
2022/10/20 10:14:59;;;;;;;2.70;0.90;;;18.70;99.90;;;;;;5072925;28;20739;-85
2022/10/20 10:17:37;;;;;;;1.53;0.50;;;18.90;99.90;;;;;;5072833;28;20417;-86
2022/10/20 10:20:06;;;;;;;1.77;0.30;;;17.80;99.90;;;;;;5072719;28;20413;-85
2022/10/20 10:22:32;;;;;;;1.00;0.30;;;17.70;99.90;;;;;;5072671;28;20409;-86
2022/10/20 10:24:59;;;;;;;0.90;0.60;;;17.40;99.90;;;;;;5072438;28;20469;-85
2022/10/20 10:27:28;;;;;;;0.80;0.60;;;17.30;99.90;;;;;;5072772;28;20399;-85
2022/10/20 10:30:14;;;;;;;2.47;1.03;;;16.20;99.90;;;;;;5072645;28;20527;-85
2022/10/20 10:32:43;;;;;;;1.80;0.40;;;16.00;99.90;;;;;;5072543;28;20429;-85
2022/10/20 10:35:29;;;;;;;1.73;0.40;;;14.90;99.90;;;;;;5072593;28;20416;-85
2022/10/20 10:37:57;;;;;;;1.17;0.53;;;14.80;1.00;;;;;;5072619;28;20411;-86
2022/10/20 10:41:01;;;;;;;2.40;0.67;;;14.80;1.00;;;;;;5072396;28;20426;-85
2022/10/20 10:44:05;;;;;;;3.17;0.83;;;14.80;99.90;;;;;;4991024;28;20492;-84
2022/10/20 10:46:36;;;;;;;4.77;0.57;;;14.30;99.90;;;;;;5054596;28;20900;-85
2022/10/20 10:49:43;;;;;;;1.30;0.53;;;14.10;1.00;;;;;;5072490;28;20468;-85
2022/10/20 10:52:27;;;;;;;2.10;0.60;;;14.00;1.00;;;;;;5054459;28;20432;-85
2022/10/20 10:55:16;;;;;;;1.90;0.50;;;14.00;1.00;;;;;;5054068;28;20769;-85
2022/10/20 10:58:33;;;;;;;1.63;0.70;;;14.20;99.90;;;;;;5072312;28;20979;-84
2022/10/20 11:01:04;;;;;;;1.90;0.50;;;14.30;15.50;;;;;;5038311;28;20448;-84
2022/10/20 11:03:48;;;;;;;2.67;1.00;;;14.20;1.00;;;;;;5072258;28;20787;-84
2022/10/20 11:06:26;;;;;;;2.00;0.70;;;13.90;1.00;;;;;;5071315;28;20934;-84
2022/10/20 11:09:05;;;;;;;2.60;0.80;;;14.10;1.00;;;;;;5073456;28;20418;-85
2022/10/20 11:11:39;;;;;;;2.37;1.20;;;13.80;99.90;;;;;;5074708;28;20959;-85
2022/10/20 11:14:27;;;;;;;1.13;0.70;;;14.30;1.00;;;;;;5074649;28;20405;-84
2022/10/20 11:17:18;;;;;;;1.83;0.50;;;15.70;1.00;;;;;;5074637;28;20421;-84
2022/10/20 11:19:52;;;;;;;1.57;0.93;;;15.50;99.90;;;;;;5074586;28;20414;-84
2022/10/20 11:22:50;;;;;;;1.97;0.70;;;15.40;99.90;;;;;;5074620;28;20415;-86
2022/10/20 11:25:36;;;;;;;2.00;0.70;;;15.00;1.00;;;;;;5073391;28;20438;-84
2022/10/20 11:28:02;;;;;;;1.83;0.80;;;14.90;1.00;;;;;;5074498;28;20484;-85
2022/10/20 11:30:29;;;;;;;5.63;1.00;;;15.00;1.00;;;;;;5074299;28;20551;-84
2022/10/20 11:33:11;;;;;;;4.57;0.50;;;14.80;1.00;;;;;;5074371;28;20231;-84
2022/10/20 11:36:02;;;;;;;1.57;0.53;;;14.70;1.00;;;;;;5074377;28;20419;-85
2022/10/20 11:38:42;;;;;;;2.50;0.70;;;14.40;1.00;;;;;;5073901;28;20496;-84
2022/10/20 11:41:42;;;;;;;1.20;0.60;;;14.80;99.90;;;;;;5074313;28;20639;-85
2022/10/20 11:44:27;;;;;;;1.60;1.03;;;14.60;1.00;;;;;;5074223;28;20417;-86
2022/10/20 11:47:15;;;;;;;1.90;0.70;;;15.70;99.90;;;;;;5074239;28;20989;-85
2022/10/20 11:49:41;;;;;;;4.43;0.93;;;17.00;99.90;;;;;;5073996;28;20540;-85
2022/10/20 11:52:26;;;;;;;3.47;1.57;;;17.50;99.90;;;;;;5074119;28;20798;-86
2022/10/20 11:55:07;;;;;;;1.87;0.43;;;17.00;99.90;;;;;;5073751;28;20576;-84
2022/10/20 11:57:54;;;;;;;2.03;0.70;;;16.50;99.90;;;;;;5074133;28;20411;-84
2022/10/20 12:00:48;;;;;;;2.20;0.90;;;16.20;99.90;;;;;;5074049;28;20415;-85
2022/10/20 12:03:40;;;;;;;1.20;0.67;;;15.40;99.90;;;;;;5073977;28;20419;-84
2022/10/20 12:06:35;;;;;;;2.13;1.07;;;15.60;99.90;;;;;;5054995;28;110314;-86
2022/10/20 12:09:22;;;;;;;1.70;1.00;;;15.10;99.90;;;;;;5074502;28;20522;-84
2022/10/20 12:12:03;;;;;;;3.17;1.90;;;14.90;99.90;;;;;;5074860;28;20451;-85
2022/10/20 12:14:51;;;;;;;3.60;1.10;;;15.10;99.90;;;;;;5074609;28;20412;-84
2022/10/20 12:17:34;;;;;;;1.80;1.07;;;15.60;99.90;;;;;;5074448;28;20414;-86
2022/10/20 12:20:18;;;;;;;2.00;1.07;;;15.60;99.90;;;;;;5073588;28;20501;-84
2022/10/20 12:22:45;;;;;;;4.20;0.90;;;15.70;99.90;;;;;;5074251;28;20849;-84
2022/10/20 12:25:23;;;;;;;1.90;1.00;;;15.70;99.90;;;;;;5074033;28;20436;-85
2022/10/20 12:28:23;;;;;;;2.30;1.10;;;15.40;99.90;;;;;;5056399;28;20519;-83
2022/10/20 12:31:00;;;;;;;2.77;0.97;;;15.30;99.90;;;;;;5074194;28;20463;-85
2022/10/20 12:34:05;;;;;;;2.47;1.33;;;15.10;99.90;;;;;;5056162;28;20488;-84
2022/10/20 12:36:38;;;;;;;2.40;1.13;;;15.00;99.90;;;;;;5073526;28;21060;-83
2022/10/20 12:39:14;;;;;;;2.33;0.90;;;14.60;1.00;;;;;;5073898;28;20416;-83
2022/10/20 12:42:15;;;;;;;3.23;1.33;;;14.30;1.00;;;;;;5074102;28;20571;-83
2022/10/20 12:44:43;;;;;;;2.30;0.83;;;14.50;1.00;;;;;;5029237;28;20936;-83
2022/10/20 12:47:17;;;;;;;4.63;1.60;;;14.90;1.00;;;;;;5074023;28;20511;-83
2022/10/20 12:50:24;;;;;;;2.50;1.73;;;14.80;1.00;;;;;;5055865;28;20490;-83
2022/10/20 12:52:49;;;;;;;1.93;1.03;;;15.00;1.00;;;;;;5051346;28;20456;-83
2022/10/20 12:55:42;;;;;;;3.40;1.70;;;15.00;1.00;;;;;;5073543;28;20446;-84
2022/10/20 12:58:17;;;;;;;2.83;0.90;;;15.00;1.00;;;;;;5070563;28;20279;-84
2022/10/20 13:00:45;;;;;;;1.83;1.07;;;14.80;1.00;;;;;;5073461;28;20811;-84
2022/10/20 13:03:30;;;;;;;3.57;1.37;;;15.00;1.00;;;;;;5073685;28;20745;-86
2022/10/20 13:05:55;;;;;;;2.37;1.10;;;14.80;99.90;;;;;;5073379;28;20857;-86
2022/10/20 13:08:24;;;;;;;3.40;1.33;;;14.70;99.90;;;;;;5052317;28;20433;-85
2022/10/20 13:10:52;;;;;;;2.40;0.70;;;14.70;99.90;;;;;;5067539;28;20213;-84
2022/10/20 13:13:18;;;;;;;5.97;1.43;;;14.70;99.90;;;;;;5073517;28;20409;-86
2022/10/20 13:15:50;;;;;;;1.80;0.63;;;14.60;99.90;;;;;;5073551;28;20416;-86
2022/10/20 13:18:22;;;;;;;2.57;1.30;;;14.60;99.90;;;;;;5073485;28;20265;-86
2022/10/20 13:21:07;;;;;;;1.90;1.30;;;14.60;99.90;;;;;;5073492;28;20633;-85